sensor_id;sensor_type;location;lat;lon;timestamp;P1;durP1;ratioP1;P2;durP2;ratioP2
20375;SDS011;10347;51.828;6.466;2023-07-09T00:00:06;6.53;;;3.40;;
20375;SDS011;10347;51.828;6.466;2023-07-09T00:02:40;4.57;;;3.22;;
20375;SDS011;10347;51.828;6.466;2023-07-09T00:05:09;6.95;;;3.67;;
20375;SDS011;10347;51.828;6.466;2023-07-09T00:07:38;4.97;;;3.80;;
20375;SDS011;10347;51.828;6.466;2023-07-09T00:10:05;3.72;;;3.15;;
20375;SDS011;10347;51.828;6.466;2023-07-09T00:12:39;4.80;;;3.70;;
20375;SDS011;10347;51.828;6.466;2023-07-09T00:15:04;3.90;;;3.33;;
20375;SDS011;10347;51.828;6.466;2023-07-09T00:17:34;4.40;;;3.50;;
20375;SDS011;10347;51.828;6.466;2023-07-09T00:20:00;5.18;;;3.40;;
20375;SDS011;10347;51.828;6.466;2023-07-09T00:22:30;5.75;;;3.45;;
20375;SDS011;10347;51.828;6.466;2023-07-09T00:24:55;5.20;;;3.42;;
20375;SDS011;10347;51.828;6.466;2023-07-09T00:27:25;5.55;;;3.55;;
20375;SDS011;10347;51.828;6.466;2023-07-09T00:29:53;5.15;;;3.35;;
20375;SDS011;10347;51.828;6.466;2023-07-09T00:32:19;4.75;;;3.45;;
20375;SDS011;10347;51.828;6.466;2023-07-09T00:34:46;4.55;;;3.22;;
20375;SDS011;10347;51.828;6.466;2023-07-09T00:37:16;4.97;;;3.35;;
20375;SDS011;10347;51.828;6.466;2023-07-09T00:39:44;7.85;;;3.55;;
20375;SDS011;10347;51.828;6.466;2023-07-09T00:42:16;6.63;;;3.45;;
20375;SDS011;10347;51.828;6.466;2023-07-09T00:44:47;4.55;;;3.28;;
20375;SDS011;10347;51.828;6.466;2023-07-09T00:49:49;3.97;;;3.45;;
20375;SDS011;10347;51.828;6.466;2023-07-09T00:52:22;5.57;;;3.70;;
20375;SDS011;10347;51.828;6.466;2023-07-09T00:54:54;5.88;;;3.60;;
20375;SDS011;10347;51.828;6.466;2023-07-09T00:57:23;5.43;;;3.88;;
20375;SDS011;10347;51.828;6.466;2023-07-09T00:59:52;4.45;;;3.80;;
20375;SDS011;10347;51.828;6.466;2023-07-09T01:02:25;5.50;;;3.42;;
20375;SDS011;10347;51.828;6.466;2023-07-09T01:04:56;4.60;;;3.72;;
20375;SDS011;10347;51.828;6.466;2023-07-09T01:07:26;4.47;;;3.45;;
20375;SDS011;10347;51.828;6.466;2023-07-09T01:09:53;8.07;;;3.72;;
20375;SDS011;10347;51.828;6.466;2023-07-09T01:12:18;5.00;;;3.78;;
20375;SDS011;10347;51.828;6.466;2023-07-09T01:14:46;5.32;;;4.05;;
20375;SDS011;10347;51.828;6.466;2023-07-09T01:17:16;4.53;;;3.47;;
20375;SDS011;10347;51.828;6.466;2023-07-09T01:19:48;5.90;;;3.80;;
20375;SDS011;10347;51.828;6.466;2023-07-09T01:22:16;5.40;;;3.60;;
20375;SDS011;10347;51.828;6.466;2023-07-09T01:27:15;4.32;;;3.75;;
20375;SDS011;10347;51.828;6.466;2023-07-09T01:29:43;7.85;;;4.25;;
20375;SDS011;10347;51.828;6.466;2023-07-09T01:32:14;5.43;;;3.33;;
20375;SDS011;10347;51.828;6.466;2023-07-09T01:34:44;4.85;;;3.10;;
20375;SDS011;10347;51.828;6.466;2023-07-09T01:37:14;7.22;;;3.70;;
20375;SDS011;10347;51.828;6.466;2023-07-09T01:39:44;4.32;;;3.55;;
20375;SDS011;10347;51.828;6.466;2023-07-09T01:42:09;5.10;;;3.92;;
20375;SDS011;10347;51.828;6.466;2023-07-09T01:44:36;5.75;;;3.55;;
20375;SDS011;10347;51.828;6.466;2023-07-09T01:47:03;6.10;;;3.58;;
20375;SDS011;10347;51.828;6.466;2023-07-09T01:49:30;5.70;;;4.00;;
20375;SDS011;10347;51.828;6.466;2023-07-09T01:52:00;7.20;;;3.70;;
20375;SDS011;10347;51.828;6.466;2023-07-09T01:54:28;8.88;;;4.15;;
20375;SDS011;10347;51.828;6.466;2023-07-09T01:57:12;6.40;;;3.80;;
20375;SDS011;10347;51.828;6.466;2023-07-09T01:59:38;4.63;;;3.42;;
20375;SDS011;10347;51.828;6.466;2023-07-09T02:02:06;6.90;;;4.00;;
20375;SDS011;10347;51.828;6.466;2023-07-09T02:04:32;4.80;;;3.65;;
20375;SDS011;10347;51.828;6.466;2023-07-09T02:06:58;6.85;;;3.78;;
20375;SDS011;10347;51.828;6.466;2023-07-09T02:09:23;4.72;;;3.83;;
20375;SDS011;10347;51.828;6.466;2023-07-09T02:11:49;4.20;;;3.80;;
20375;SDS011;10347;51.828;6.466;2023-07-09T02:14:14;7.93;;;3.42;;
20375;SDS011;10347;51.828;6.466;2023-07-09T02:16:40;4.20;;;3.50;;
20375;SDS011;10347;51.828;6.466;2023-07-09T02:19:05;4.95;;;3.55;;
20375;SDS011;10347;51.828;6.466;2023-07-09T02:21:31;5.20;;;3.92;;
20375;SDS011;10347;51.828;6.466;2023-07-09T02:23:56;6.03;;;3.50;;
20375;SDS011;10347;51.828;6.466;2023-07-09T02:26:22;5.00;;;3.70;;
20375;SDS011;10347;51.828;6.466;2023-07-09T02:28:47;5.30;;;3.75;;
20375;SDS011;10347;51.828;6.466;2023-07-09T02:31:14;6.32;;;4.10;;
20375;SDS011;10347;51.828;6.466;2023-07-09T02:33:40;5.55;;;3.72;;
20375;SDS011;10347;51.828;6.466;2023-07-09T02:36:06;6.47;;;3.88;;
20375;SDS011;10347;51.828;6.466;2023-07-09T02:38:31;6.45;;;3.50;;
20375;SDS011;10347;51.828;6.466;2023-07-09T02:40:57;4.97;;;3.95;;
20375;SDS011;10347;51.828;6.466;2023-07-09T02:43:22;4.40;;;3.50;;
20375;SDS011;10347;51.828;6.466;2023-07-09T02:45:48;5.28;;;3.42;;
20375;SDS011;10347;51.828;6.466;2023-07-09T02:48:14;4.55;;;3.53;;
20375;SDS011;10347;51.828;6.466;2023-07-09T02:50:39;6.35;;;3.72;;
20375;SDS011;10347;51.828;6.466;2023-07-09T02:53:05;4.10;;;3.67;;
20375;SDS011;10347;51.828;6.466;2023-07-09T02:55:30;5.30;;;3.90;;
20375;SDS011;10347;51.828;6.466;2023-07-09T02:57:56;5.03;;;3.65;;
20375;SDS011;10347;51.828;6.466;2023-07-09T03:00:21;5.38;;;4.07;;
20375;SDS011;10347;51.828;6.466;2023-07-09T03:02:47;4.72;;;3.67;;
20375;SDS011;10347;51.828;6.466;2023-07-09T03:05:12;6.70;;;3.95;;
20375;SDS011;10347;51.828;6.466;2023-07-09T03:07:38;5.20;;;3.88;;
20375;SDS011;10347;51.828;6.466;2023-07-09T03:10:04;5.18;;;3.80;;
20375;SDS011;10347;51.828;6.466;2023-07-09T03:12:29;5.68;;;3.95;;
20375;SDS011;10347;51.828;6.466;2023-07-09T03:14:55;5.25;;;3.97;;
20375;SDS011;10347;51.828;6.466;2023-07-09T03:17:20;5.97;;;3.92;;
20375;SDS011;10347;51.828;6.466;2023-07-09T03:19:46;4.20;;;3.80;;
20375;SDS011;10347;51.828;6.466;2023-07-09T03:22:12;5.78;;;3.85;;
20375;SDS011;10347;51.828;6.466;2023-07-09T03:24:37;5.68;;;4.05;;
20375;SDS011;10347;51.828;6.466;2023-07-09T03:27:03;5.50;;;3.78;;
20375;SDS011;10347;51.828;6.466;2023-07-09T03:29:28;7.55;;;4.13;;
20375;SDS011;10347;51.828;6.466;2023-07-09T03:31:54;6.25;;;4.30;;
20375;SDS011;10347;51.828;6.466;2023-07-09T03:34:19;7.35;;;4.00;;
20375;SDS011;10347;51.828;6.466;2023-07-09T03:36:45;4.68;;;3.55;;
20375;SDS011;10347;51.828;6.466;2023-07-09T03:39:11;4.78;;;4.07;;
20375;SDS011;10347;51.828;6.466;2023-07-09T03:41:36;7.18;;;4.50;;
20375;SDS011;10347;51.828;6.466;2023-07-09T03:44:02;4.80;;;4.05;;
20375;SDS011;10347;51.828;6.466;2023-07-09T03:46:28;6.03;;;4.38;;
20375;SDS011;10347;51.828;6.466;2023-07-09T03:48:53;6.65;;;4.05;;
20375;SDS011;10347;51.828;6.466;2023-07-09T03:51:19;6.18;;;4.28;;
20375;SDS011;10347;51.828;6.466;2023-07-09T03:53:45;7.70;;;4.45;;
20375;SDS011;10347;51.828;6.466;2023-07-09T03:56:10;6.40;;;4.50;;
20375;SDS011;10347;51.828;6.466;2023-07-09T03:58:36;6.32;;;4.38;;
20375;SDS011;10347;51.828;6.466;2023-07-09T04:01:01;6.85;;;4.40;;
20375;SDS011;10347;51.828;6.466;2023-07-09T04:03:27;7.40;;;4.50;;
20375;SDS011;10347;51.828;6.466;2023-07-09T04:05:53;4.85;;;4.05;;
20375;SDS011;10347;51.828;6.466;2023-07-09T04:08:18;6.35;;;4.20;;
20375;SDS011;10347;51.828;6.466;2023-07-09T04:10:45;5.20;;;4.45;;
20375;SDS011;10347;51.828;6.466;2023-07-09T04:13:10;5.25;;;3.80;;
20375;SDS011;10347;51.828;6.466;2023-07-09T04:15:36;7.60;;;4.35;;
20375;SDS011;10347;51.828;6.466;2023-07-09T04:18:01;5.57;;;4.47;;
20375;SDS011;10347;51.828;6.466;2023-07-09T04:20:27;7.32;;;4.53;;
20375;SDS011;10347;51.828;6.466;2023-07-09T04:22:53;4.78;;;4.07;;
20375;SDS011;10347;51.828;6.466;2023-07-09T04:25:18;5.40;;;4.60;;
20375;SDS011;10347;51.828;6.466;2023-07-09T04:27:44;7.22;;;4.63;;
20375;SDS011;10347;51.828;6.466;2023-07-09T04:30:13;7.90;;;4.40;;
20375;SDS011;10347;51.828;6.466;2023-07-09T04:32:40;6.18;;;5.10;;
20375;SDS011;10347;51.828;6.466;2023-07-09T04:35:08;5.82;;;4.60;;
20375;SDS011;10347;51.828;6.466;2023-07-09T04:37:36;7.82;;;4.97;;
20375;SDS011;10347;51.828;6.466;2023-07-09T04:40:03;7.78;;;5.40;;
20375;SDS011;10347;51.828;6.466;2023-07-09T04:42:31;6.57;;;4.93;;
20375;SDS011;10347;51.828;6.466;2023-07-09T04:44:57;7.70;;;5.53;;
20375;SDS011;10347;51.828;6.466;2023-07-09T04:47:23;5.93;;;4.75;;
20375;SDS011;10347;51.828;6.466;2023-07-09T04:49:49;6.07;;;4.72;;
20375;SDS011;10347;51.828;6.466;2023-07-09T04:52:14;5.93;;;5.13;;
20375;SDS011;10347;51.828;6.466;2023-07-09T04:54:40;5.95;;;5.18;;
20375;SDS011;10347;51.828;6.466;2023-07-09T04:57:09;11.23;;;5.65;;
20375;SDS011;10347;51.828;6.466;2023-07-09T04:59:36;5.93;;;4.82;;
20375;SDS011;10347;51.828;6.466;2023-07-09T05:02:01;6.25;;;4.72;;
20375;SDS011;10347;51.828;6.466;2023-07-09T05:04:28;8.40;;;4.80;;
20375;SDS011;10347;51.828;6.466;2023-07-09T05:06:54;6.80;;;5.13;;
20375;SDS011;10347;51.828;6.466;2023-07-09T05:09:21;5.85;;;5.18;;
20375;SDS011;10347;51.828;6.466;2023-07-09T05:11:48;9.50;;;5.65;;
20375;SDS011;10347;51.828;6.466;2023-07-09T05:14:14;10.05;;;5.38;;
20375;SDS011;10347;51.828;6.466;2023-07-09T05:16:39;7.68;;;5.10;;
20375;SDS011;10347;51.828;6.466;2023-07-09T05:19:06;8.88;;;5.57;;
20375;SDS011;10347;51.828;6.466;2023-07-09T05:21:33;6.95;;;5.40;;
20375;SDS011;10347;51.828;6.466;2023-07-09T05:23:59;9.30;;;5.38;;
20375;SDS011;10347;51.828;6.466;2023-07-09T05:26:25;7.53;;;5.32;;
20375;SDS011;10347;51.828;6.466;2023-07-09T05:28:50;5.65;;;4.72;;
20375;SDS011;10347;51.828;6.466;2023-07-09T05:31:16;5.65;;;4.78;;
20375;SDS011;10347;51.828;6.466;2023-07-09T05:33:41;10.05;;;5.20;;
20375;SDS011;10347;51.828;6.466;2023-07-09T05:36:07;7.05;;;4.97;;
20375;SDS011;10347;51.828;6.466;2023-07-09T05:38:38;6.30;;;4.78;;
20375;SDS011;10347;51.828;6.466;2023-07-09T05:41:04;7.10;;;5.07;;
20375;SDS011;10347;51.828;6.466;2023-07-09T05:43:30;8.07;;;5.07;;
20375;SDS011;10347;51.828;6.466;2023-07-09T05:45:56;7.18;;;4.90;;
20375;SDS011;10347;51.828;6.466;2023-07-09T05:48:22;6.43;;;5.30;;
20375;SDS011;10347;51.828;6.466;2023-07-09T05:50:48;6.95;;;4.93;;
20375;SDS011;10347;51.828;6.466;2023-07-09T05:53:17;7.82;;;4.78;;
20375;SDS011;10347;51.828;6.466;2023-07-09T05:55:43;6.05;;;4.68;;
20375;SDS011;10347;51.828;6.466;2023-07-09T05:58:08;8.20;;;4.80;;
20375;SDS011;10347;51.828;6.466;2023-07-09T06:00:34;9.32;;;5.20;;
20375;SDS011;10347;51.828;6.466;2023-07-09T06:03:03;6.93;;;4.78;;
20375;SDS011;10347;51.828;6.466;2023-07-09T06:05:32;5.97;;;4.60;;
20375;SDS011;10347;51.828;6.466;2023-07-09T06:08:00;7.47;;;5.28;;
20375;SDS011;10347;51.828;6.466;2023-07-09T06:10:26;6.22;;;4.55;;
20375;SDS011;10347;51.828;6.466;2023-07-09T06:12:51;6.10;;;4.35;;
20375;SDS011;10347;51.828;6.466;2023-07-09T06:15:17;5.97;;;4.63;;
20375;SDS011;10347;51.828;6.466;2023-07-09T06:17:43;7.35;;;4.45;;
20375;SDS011;10347;51.828;6.466;2023-07-09T06:20:09;6.05;;;4.30;;
20375;SDS011;10347;51.828;6.466;2023-07-09T06:22:35;8.20;;;4.60;;
20375;SDS011;10347;51.828;6.466;2023-07-09T06:25:01;7.60;;;4.55;;
20375;SDS011;10347;51.828;6.466;2023-07-09T06:27:27;6.05;;;4.47;;
20375;SDS011;10347;51.828;6.466;2023-07-09T06:29:52;7.10;;;5.00;;
20375;SDS011;10347;51.828;6.466;2023-07-09T06:32:18;8.75;;;5.30;;
20375;SDS011;10347;51.828;6.466;2023-07-09T06:34:44;10.60;;;5.18;;
20375;SDS011;10347;51.828;6.466;2023-07-09T06:37:09;6.65;;;5.00;;
20375;SDS011;10347;51.828;6.466;2023-07-09T06:39:35;10.60;;;4.75;;
20375;SDS011;10347;51.828;6.466;2023-07-09T06:42:00;6.50;;;4.88;;
20375;SDS011;10347;51.828;6.466;2023-07-09T06:44:26;7.68;;;5.53;;
20375;SDS011;10347;51.828;6.466;2023-07-09T06:46:51;11.23;;;6.20;;
20375;SDS011;10347;51.828;6.466;2023-07-09T06:49:17;8.75;;;5.63;;
20375;SDS011;10347;51.828;6.466;2023-07-09T06:51:42;9.82;;;5.70;;
20375;SDS011;10347;51.828;6.466;2023-07-09T06:54:08;9.65;;;5.18;;
20375;SDS011;10347;51.828;6.466;2023-07-09T06:56:34;8.20;;;6.00;;
20375;SDS011;10347;51.828;6.466;2023-07-09T06:58:59;10.27;;;5.65;;
20375;SDS011;10347;51.828;6.466;2023-07-09T07:01:25;9.50;;;5.78;;
20375;SDS011;10347;51.828;6.466;2023-07-09T07:03:51;8.88;;;5.18;;
20375;SDS011;10347;51.828;6.466;2023-07-09T07:06:16;9.95;;;5.78;;
20375;SDS011;10347;51.828;6.466;2023-07-09T07:08:42;7.38;;;5.38;;
20375;SDS011;10347;51.828;6.466;2023-07-09T07:11:07;10.50;;;5.13;;
20375;SDS011;10347;51.828;6.466;2023-07-09T07:13:34;8.57;;;5.95;;
20375;SDS011;10347;51.828;6.466;2023-07-09T07:16:08;11.45;;;5.97;;
20375;SDS011;10347;51.828;6.466;2023-07-09T07:18:35;9.55;;;5.88;;
20375;SDS011;10347;51.828;6.466;2023-07-09T07:21:01;10.77;;;5.75;;
20375;SDS011;10347;51.828;6.466;2023-07-09T07:23:27;9.45;;;5.55;;
20375;SDS011;10347;51.828;6.466;2023-07-09T07:25:53;9.30;;;5.63;;
20375;SDS011;10347;51.828;6.466;2023-07-09T07:28:19;10.35;;;5.18;;
20375;SDS011;10347;51.828;6.466;2023-07-09T07:30:45;9.82;;;5.80;;
20375;SDS011;10347;51.828;6.466;2023-07-09T07:33:12;8.80;;;5.25;;
20375;SDS011;10347;51.828;6.466;2023-07-09T07:35:39;8.05;;;5.35;;
20375;SDS011;10347;51.828;6.466;2023-07-09T07:38:04;8.95;;;5.20;;
20375;SDS011;10347;51.828;6.466;2023-07-09T07:40:31;8.90;;;5.18;;
20375;SDS011;10347;51.828;6.466;2023-07-09T07:42:57;11.10;;;6.15;;
20375;SDS011;10347;51.828;6.466;2023-07-09T07:45:23;9.93;;;5.53;;
20375;SDS011;10347;51.828;6.466;2023-07-09T07:47:48;9.98;;;5.57;;
20375;SDS011;10347;51.828;6.466;2023-07-09T07:50:16;9.27;;;5.65;;
20375;SDS011;10347;51.828;6.466;2023-07-09T07:52:41;9.50;;;5.38;;
20375;SDS011;10347;51.828;6.466;2023-07-09T07:55:07;8.52;;;5.50;;
20375;SDS011;10347;51.828;6.466;2023-07-09T07:57:34;12.43;;;6.38;;
20375;SDS011;10347;51.828;6.466;2023-07-09T08:00:00;10.82;;;5.80;;
20375;SDS011;10347;51.828;6.466;2023-07-09T08:02:25;12.88;;;6.43;;
20375;SDS011;10347;51.828;6.466;2023-07-09T08:04:51;12.43;;;6.72;;
20375;SDS011;10347;51.828;6.466;2023-07-09T08:07:17;11.02;;;5.95;;
20375;SDS011;10347;51.828;6.466;2023-07-09T08:09:44;12.18;;;5.90;;
20375;SDS011;10347;51.828;6.466;2023-07-09T08:12:11;10.57;;;5.88;;
20375;SDS011;10347;51.828;6.466;2023-07-09T08:14:38;12.88;;;6.82;;
20375;SDS011;10347;51.828;6.466;2023-07-09T08:17:05;9.98;;;6.22;;
20375;SDS011;10347;51.828;6.466;2023-07-09T08:19:31;10.25;;;5.93;;
20375;SDS011;10347;51.828;6.466;2023-07-09T08:21:58;8.00;;;5.05;;
20375;SDS011;10347;51.828;6.466;2023-07-09T08:24:23;15.05;;;6.15;;
20375;SDS011;10347;51.828;6.466;2023-07-09T08:26:49;10.45;;;5.47;;
20375;SDS011;10347;51.828;6.466;2023-07-09T08:29:14;7.93;;;5.88;;
20375;SDS011;10347;51.828;6.466;2023-07-09T08:31:40;9.70;;;5.00;;
20375;SDS011;10347;51.828;6.466;2023-07-09T08:34:07;7.22;;;5.03;;
20375;SDS011;10347;51.828;6.466;2023-07-09T08:36:33;8.13;;;5.45;;
20375;SDS011;10347;51.828;6.466;2023-07-09T08:39:02;8.48;;;5.45;;
20375;SDS011;10347;51.828;6.466;2023-07-09T08:41:37;11.25;;;5.25;;
20375;SDS011;10347;51.828;6.466;2023-07-09T08:47:11;7.40;;;5.03;;
20375;SDS011;10347;51.828;6.466;2023-07-09T08:50:08;10.10;;;5.15;;
20375;SDS011;10347;51.828;6.466;2023-07-09T08:52:37;8.98;;;5.15;;
20375;SDS011;10347;51.828;6.466;2023-07-09T08:55:17;8.52;;;5.07;;
20375;SDS011;10347;51.828;6.466;2023-07-09T08:57:47;8.10;;;5.82;;
20375;SDS011;10347;51.828;6.466;2023-07-09T09:00:22;6.20;;;5.05;;
20375;SDS011;10347;51.828;6.466;2023-07-09T09:05:54;9.07;;;4.57;;
20375;SDS011;10347;51.828;6.466;2023-07-09T09:08:27;7.53;;;5.03;;
20375;SDS011;10347;51.828;6.466;2023-07-09T09:11:14;7.50;;;4.72;;
20375;SDS011;10347;51.828;6.466;2023-07-09T09:14:01;6.80;;;4.72;;
20375;SDS011;10347;51.828;6.466;2023-07-09T09:16:33;9.32;;;5.05;;
20375;SDS011;10347;51.828;6.466;2023-07-09T09:19:02;7.28;;;4.25;;
20375;SDS011;10347;51.828;6.466;2023-07-09T09:21:35;8.45;;;4.82;;
20375;SDS011;10347;51.828;6.466;2023-07-09T09:24:18;6.72;;;4.60;;
20375;SDS011;10347;51.828;6.466;2023-07-09T09:26:51;7.88;;;5.07;;
20375;SDS011;10347;51.828;6.466;2023-07-09T09:29:23;7.68;;;4.90;;
20375;SDS011;10347;51.828;6.466;2023-07-09T09:31:50;9.70;;;4.93;;
20375;SDS011;10347;51.828;6.466;2023-07-09T09:34:21;9.20;;;5.07;;
20375;SDS011;10347;51.828;6.466;2023-07-09T09:36:53;7.35;;;4.93;;
20375;SDS011;10347;51.828;6.466;2023-07-09T09:39:20;7.85;;;4.70;;
20375;SDS011;10347;51.828;6.466;2023-07-09T09:41:46;8.30;;;4.68;;
20375;SDS011;10347;51.828;6.466;2023-07-09T09:44:18;5.45;;;4.40;;
20375;SDS011;10347;51.828;6.466;2023-07-09T09:46:47;7.63;;;4.63;;
20375;SDS011;10347;51.828;6.466;2023-07-09T09:49:14;7.47;;;4.65;;
20375;SDS011;10347;51.828;6.466;2023-07-09T09:51:40;8.88;;;4.53;;
20375;SDS011;10347;51.828;6.466;2023-07-09T09:54:20;7.50;;;4.60;;
20375;SDS011;10347;51.828;6.466;2023-07-09T09:56:49;9.27;;;5.05;;
20375;SDS011;10347;51.828;6.466;2023-07-09T09:59:25;8.65;;;5.10;;
20375;SDS011;10347;51.828;6.466;2023-07-09T10:01:59;8.93;;;4.57;;
20375;SDS011;10347;51.828;6.466;2023-07-09T10:04:26;8.48;;;4.50;;
20375;SDS011;10347;51.828;6.466;2023-07-09T10:06:54;6.82;;;4.45;;
20375;SDS011;10347;51.828;6.466;2023-07-09T10:11:58;6.72;;;4.10;;
20375;SDS011;10347;51.828;6.466;2023-07-09T10:14:48;6.10;;;4.10;;
20375;SDS011;10347;51.828;6.466;2023-07-09T10:22:50;6.30;;;4.35;;
20375;SDS011;10347;51.828;6.466;2023-07-09T10:26:21;5.50;;;3.35;;
20375;SDS011;10347;51.828;6.466;2023-07-09T10:31:28;7.68;;;4.13;;
20375;SDS011;10347;51.828;6.466;2023-07-09T10:39:58;7.47;;;3.90;;
20375;SDS011;10347;51.828;6.466;2023-07-09T10:42:30;4.82;;;3.60;;
20375;SDS011;10347;51.828;6.466;2023-07-09T10:45:07;6.50;;;3.45;;
20375;SDS011;10347;51.828;6.466;2023-07-09T10:47:57;6.65;;;4.00;;
20375;SDS011;10347;51.828;6.466;2023-07-09T10:50:43;5.20;;;3.63;;
20375;SDS011;10347;51.828;6.466;2023-07-09T10:56:10;5.88;;;3.42;;
20375;SDS011;10347;51.828;6.466;2023-07-09T11:01:40;4.95;;;3.53;;
20375;SDS011;10347;51.828;6.466;2023-07-09T11:06:47;3.65;;;3.03;;
20375;SDS011;10347;51.828;6.466;2023-07-09T11:09:19;3.47;;;2.88;;
20375;SDS011;10347;51.828;6.466;2023-07-09T11:11:53;5.53;;;3.05;;
20375;SDS011;10347;51.828;6.466;2023-07-09T11:14:33;3.30;;;2.90;;
20375;SDS011;10347;51.828;6.466;2023-07-09T11:17:05;3.20;;;2.67;;
20375;SDS011;10347;51.828;6.466;2023-07-09T11:19:41;3.65;;;2.60;;
20375;SDS011;10347;51.828;6.466;2023-07-09T11:22:22;2.97;;;2.70;;
20375;SDS011;10347;51.828;6.466;2023-07-09T11:24:48;3.38;;;2.35;;
20375;SDS011;10347;51.828;6.466;2023-07-09T11:27:30;2.90;;;2.60;;
20375;SDS011;10347;51.828;6.466;2023-07-09T11:30:00;5.45;;;2.50;;
20375;SDS011;10347;51.828;6.466;2023-07-09T11:32:30;3.45;;;2.38;;
20375;SDS011;10347;51.828;6.466;2023-07-09T11:35:05;2.55;;;2.30;;
20375;SDS011;10347;51.828;6.466;2023-07-09T11:37:43;5.70;;;2.88;;
20375;SDS011;10347;51.828;6.466;2023-07-09T11:40:10;2.97;;;2.40;;
20375;SDS011;10347;51.828;6.466;2023-07-09T11:42:48;2.67;;;2.40;;
20375;SDS011;10347;51.828;6.466;2023-07-09T11:47:55;4.25;;;2.58;;
20375;SDS011;10347;51.828;6.466;2023-07-09T11:50:36;2.53;;;2.33;;
20375;SDS011;10347;51.828;6.466;2023-07-09T11:53:18;3.45;;;2.20;;
20375;SDS011;10347;51.828;6.466;2023-07-09T11:55:52;3.92;;;2.53;;
20375;SDS011;10347;51.828;6.466;2023-07-09T11:58:18;3.50;;;2.25;;
20375;SDS011;10347;51.828;6.466;2023-07-09T12:01:09;2.70;;;2.50;;
20375;SDS011;10347;51.828;6.466;2023-07-09T12:03:39;2.50;;;2.30;;
20375;SDS011;10347;51.828;6.466;2023-07-09T12:06:19;3.58;;;2.42;;
20375;SDS011;10347;51.828;6.466;2023-07-09T12:08:46;2.47;;;2.28;;
20375;SDS011;10347;51.828;6.466;2023-07-09T12:13:47;3.13;;;2.58;;
20375;SDS011;10347;51.828;6.466;2023-07-09T12:16:28;3.00;;;2.70;;
20375;SDS011;10347;51.828;6.466;2023-07-09T12:19:01;3.40;;;2.40;;
20375;SDS011;10347;51.828;6.466;2023-07-09T12:21:26;3.00;;;2.70;;
20375;SDS011;10347;51.828;6.466;2023-07-09T12:23:53;4.05;;;2.85;;
20375;SDS011;10347;51.828;6.466;2023-07-09T12:26:20;4.07;;;2.45;;
20375;SDS011;10347;51.828;6.466;2023-07-09T12:28:50;2.60;;;2.40;;
20375;SDS011;10347;51.828;6.466;2023-07-09T12:31:17;2.92;;;2.53;;
20375;SDS011;10347;51.828;6.466;2023-07-09T12:33:47;2.70;;;2.50;;
20375;SDS011;10347;51.828;6.466;2023-07-09T12:36:14;2.95;;;2.20;;
20375;SDS011;10347;51.828;6.466;2023-07-09T12:38:43;2.58;;;2.05;;
20375;SDS011;10347;51.828;6.466;2023-07-09T12:41:21;4.22;;;2.10;;
20375;SDS011;10347;51.828;6.466;2023-07-09T12:43:49;3.33;;;2.50;;
20375;SDS011;10347;51.828;6.466;2023-07-09T12:46:17;3.13;;;2.40;;
20375;SDS011;10347;51.828;6.466;2023-07-09T12:48:43;3.05;;;2.60;;
20375;SDS011;10347;51.828;6.466;2023-07-09T12:51:13;2.42;;;2.22;;
20375;SDS011;10347;51.828;6.466;2023-07-09T12:53:43;3.55;;;2.47;;
20375;SDS011;10347;51.828;6.466;2023-07-09T12:56:11;2.65;;;2.45;;
20375;SDS011;10347;51.828;6.466;2023-07-09T12:58:39;2.33;;;2.05;;
20375;SDS011;10347;51.828;6.466;2023-07-09T13:01:06;4.65;;;2.70;;
20375;SDS011;10347;51.828;6.466;2023-07-09T13:03:38;2.30;;;2.20;;
20375;SDS011;10347;51.828;6.466;2023-07-09T13:06:05;4.72;;;2.50;;
20375;SDS011;10347;51.828;6.466;2023-07-09T13:08:54;4.43;;;2.67;;
20375;SDS011;10347;51.828;6.466;2023-07-09T13:14:52;3.60;;;2.33;;
20375;SDS011;10347;51.828;6.466;2023-07-09T13:17:19;3.88;;;2.10;;
20375;SDS011;10347;51.828;6.466;2023-07-09T13:19:44;2.95;;;2.50;;
20375;SDS011;10347;51.828;6.466;2023-07-09T13:22:14;4.85;;;2.80;;
20375;SDS011;10347;51.828;6.466;2023-07-09T13:24:41;3.47;;;2.40;;
20375;SDS011;10347;51.828;6.466;2023-07-09T13:27:08;4.45;;;2.55;;
20375;SDS011;10347;51.828;6.466;2023-07-09T13:29:37;2.50;;;2.30;;
20375;SDS011;10347;51.828;6.466;2023-07-09T13:32:07;3.70;;;2.80;;
20375;SDS011;10347;51.828;6.466;2023-07-09T13:34:34;5.32;;;2.70;;
20375;SDS011;10347;51.828;6.466;2023-07-09T13:37:00;3.30;;;2.53;;
20375;SDS011;10347;51.828;6.466;2023-07-09T13:39:26;2.75;;;2.30;;
20375;SDS011;10347;51.828;6.466;2023-07-09T13:41:51;4.10;;;2.58;;
20375;SDS011;10347;51.828;6.466;2023-07-09T13:44:22;5.68;;;2.50;;
20375;SDS011;10347;51.828;6.466;2023-07-09T13:46:52;2.95;;;2.40;;
20375;SDS011;10347;51.828;6.466;2023-07-09T13:49:19;3.53;;;2.45;;
20375;SDS011;10347;51.828;6.466;2023-07-09T13:51:47;2.47;;;2.28;;
20375;SDS011;10347;51.828;6.466;2023-07-09T13:54:15;2.78;;;2.58;;
20375;SDS011;10347;51.828;6.466;2023-07-09T13:56:46;3.17;;;2.67;;
20375;SDS011;10347;51.828;6.466;2023-07-09T13:59:15;3.08;;;2.45;;
20375;SDS011;10347;51.828;6.466;2023-07-09T14:01:44;4.40;;;2.55;;
20375;SDS011;10347;51.828;6.466;2023-07-09T14:04:11;3.58;;;2.67;;
20375;SDS011;10347;51.828;6.466;2023-07-09T14:06:38;3.85;;;2.47;;
20375;SDS011;10347;51.828;6.466;2023-07-09T14:09:04;3.42;;;2.40;;
20375;SDS011;10347;51.828;6.466;2023-07-09T14:11:31;3.58;;;2.40;;
20375;SDS011;10347;51.828;6.466;2023-07-09T14:13:57;2.50;;;2.35;;
20375;SDS011;10347;51.828;6.466;2023-07-09T14:16:22;5.22;;;3.10;;
20375;SDS011;10347;51.828;6.466;2023-07-09T14:18:48;2.72;;;2.50;;
20375;SDS011;10347;51.828;6.466;2023-07-09T14:21:14;6.32;;;2.95;;
20375;SDS011;10347;51.828;6.466;2023-07-09T14:23:41;3.45;;;2.30;;
20375;SDS011;10347;51.828;6.466;2023-07-09T14:26:08;2.55;;;2.35;;
20375;SDS011;10347;51.828;6.466;2023-07-09T14:28:37;3.05;;;2.72;;
20375;SDS011;10347;51.828;6.466;2023-07-09T14:31:04;3.28;;;2.92;;
20375;SDS011;10347;51.828;6.466;2023-07-09T14:33:38;3.10;;;2.80;;
20375;SDS011;10347;51.828;6.466;2023-07-09T14:36:03;3.20;;;2.67;;
20375;SDS011;10347;51.828;6.466;2023-07-09T14:38:29;4.30;;;2.42;;
20375;SDS011;10347;51.828;6.466;2023-07-09T14:40:55;5.53;;;2.90;;
20375;SDS011;10347;51.828;6.466;2023-07-09T14:43:23;3.75;;;3.35;;
20375;SDS011;10347;51.828;6.466;2023-07-09T14:45:49;4.18;;;3.13;;
20375;SDS011;10347;51.828;6.466;2023-07-09T14:48:18;5.38;;;2.80;;
20375;SDS011;10347;51.828;6.466;2023-07-09T14:50:45;3.58;;;3.25;;
20375;SDS011;10347;51.828;6.466;2023-07-09T14:53:13;4.55;;;3.30;;
20375;SDS011;10347;51.828;6.466;2023-07-09T14:55:40;3.58;;;3.25;;
20375;SDS011;10347;51.828;6.466;2023-07-09T14:58:12;5.10;;;3.63;;
20375;SDS011;10347;51.828;6.466;2023-07-09T15:00:44;5.65;;;4.20;;
20375;SDS011;10347;51.828;6.466;2023-07-09T15:03:17;6.43;;;4.57;;
20375;SDS011;10347;51.828;6.466;2023-07-09T15:05:48;6.63;;;4.10;;
20375;SDS011;10347;51.828;6.466;2023-07-09T15:08:16;6.03;;;5.22;;
20375;SDS011;10347;51.828;6.466;2023-07-09T15:10:44;113.15;;;10.30;;
20375;SDS011;10347;51.828;6.466;2023-07-09T15:13:14;14.02;;;2.70;;
20375;SDS011;10347;51.828;6.466;2023-07-09T15:15:45;8.90;;;2.88;;
20375;SDS011;10347;51.828;6.466;2023-07-09T15:18:12;6.07;;;2.53;;
20375;SDS011;10347;51.828;6.466;2023-07-09T15:20:39;8.02;;;2.38;;
20375;SDS011;10347;51.828;6.466;2023-07-09T15:23:11;4.70;;;2.35;;
20375;SDS011;10347;51.828;6.466;2023-07-09T15:25:37;5.95;;;2.65;;
20375;SDS011;10347;51.828;6.466;2023-07-09T15:28:03;3.78;;;2.90;;
20375;SDS011;10347;51.828;6.466;2023-07-09T15:30:30;3.90;;;2.60;;
20375;SDS011;10347;51.828;6.466;2023-07-09T15:32:57;2.35;;;2.00;;
20375;SDS011;10347;51.828;6.466;2023-07-09T15:35:26;2.58;;;2.38;;
20375;SDS011;10347;51.828;6.466;2023-07-09T15:37:58;4.63;;;3.30;;